createdAt,value
2019-03-19T00:01:35.793Z,31.10
2019-03-19T00:09:25.602Z,31.00
2019-03-19T00:14:34.759Z,30.90
2019-03-19T00:17:11.118Z,30.90
2019-03-19T00:19:45.207Z,30.90
2019-03-19T00:24:52.318Z,31.00
2019-03-19T00:27:29.024Z,31.00
2019-03-19T00:30:03.398Z,30.90
2019-03-19T00:32:53.409Z,31.00
2019-03-19T00:35:47.402Z,31.00
2019-03-19T00:40:52.111Z,31.00
2019-03-19T00:46:00.148Z,31.00
2019-03-19T00:51:06.667Z,31.00
2019-03-19T00:56:11.776Z,31.00
2019-03-19T01:01:20.945Z,31.00
2019-03-19T01:06:23.438Z,31.00
2019-03-19T01:11:23.877Z,31.00
2019-03-19T01:17:06.444Z,30.90
2019-03-19T01:22:11.338Z,30.80
2019-03-19T01:27:20.253Z,30.90
2019-03-19T01:29:50.528Z,30.90
2019-03-19T01:32:20.007Z,30.80
2019-03-19T01:37:39.324Z,30.80
2019-03-19T01:42:39.282Z,30.70
2019-03-19T01:47:38.965Z,30.80
2019-03-19T01:50:34.966Z,30.80
2019-03-19T01:58:30.503Z,30.80
2019-03-19T02:03:36.774Z,30.80
2019-03-19T02:08:40.031Z,30.90
2019-03-19T02:13:40.879Z,30.90
2019-03-19T02:16:29.918Z,30.80
2019-03-19T02:19:09.939Z,30.80
2019-03-19T02:21:37.486Z,30.70
2019-03-19T02:24:07.966Z,30.60
2019-03-19T02:26:41.301Z,30.70
2019-03-19T02:29:11.810Z,30.80
2019-03-19T02:34:36.760Z,30.70
2019-03-19T02:39:42.017Z,30.70
2019-03-19T02:45:08.090Z,30.70
2019-03-19T02:50:14.119Z,30.70
2019-03-19T02:55:14.583Z,30.70
2019-03-19T02:58:08.839Z,30.70
2019-03-19T03:00:39.773Z,30.80
2019-03-19T03:06:32.526Z,30.70
2019-03-19T03:09:04.162Z,30.70
2019-03-19T03:11:34.839Z,30.70
2019-03-19T03:17:17.745Z,30.60
2019-03-19T03:22:19.660Z,30.70
2019-03-19T03:24:50.472Z,30.70
2019-03-19T03:27:20.824Z,30.70
2019-03-19T03:32:25.178Z,30.60
2019-03-19T03:37:26.547Z,30.80
2019-03-19T03:39:59.940Z,30.60
2019-03-19T03:50:01.496Z,31.40
2019-03-19T03:52:38.807Z,30.60
2019-03-19T03:58:00.604Z,30.50
2019-03-19T04:00:51.300Z,30.50
2019-03-19T04:03:25.529Z,30.50
2019-03-19T04:05:58.846Z,30.60
2019-03-19T04:13:59.785Z,30.50
2019-03-19T04:19:00.712Z,30.50
2019-03-19T04:21:32.270Z,30.60
2019-03-19T04:26:40.828Z,30.40
2019-03-19T04:31:40.436Z,30.60
2019-03-19T04:39:16.928Z,30.60
2019-03-19T04:47:12.542Z,30.50
2019-03-19T04:49:42.902Z,30.50
2019-03-19T04:52:12.925Z,30.40
2019-03-19T04:57:13.009Z,30.40
2019-03-19T05:02:32.842Z,30.40
2019-03-19T05:07:55.818Z,30.40
2019-03-19T05:10:26.288Z,30.60
2019-03-19T05:12:56.762Z,30.50
2019-03-19T05:15:27.175Z,30.50
2019-03-19T05:20:31.570Z,30.50
2019-03-19T05:31:05.568Z,30.50
2019-03-19T05:33:36.025Z,30.50
2019-03-19T05:36:06.426Z,30.40
2019-03-19T05:38:37.892Z,30.40
2019-03-19T05:41:28.695Z,30.40
2019-03-19T05:44:05.974Z,31.10
2019-03-19T05:49:28.798Z,30.60
2019-03-19T05:54:35.837Z,30.40
2019-03-19T05:57:07.461Z,30.40
2019-03-19T06:00:06.753Z,30.60
2019-03-19T06:02:39.036Z,30.50
2019-03-19T06:05:10.672Z,30.40
2019-03-19T06:07:43.918Z,29.90
2019-03-19T06:12:46.462Z,30.20
2019-03-19T06:15:26.723Z,30.30
2019-03-19T06:18:34.725Z,30.20
2019-03-19T06:23:32.550Z,30.20
2019-03-19T06:28:45.844Z,30.30
2019-03-19T06:31:16.797Z,30.20
2019-03-19T06:33:48.173Z,30.50
2019-03-19T06:36:18.754Z,30.30
2019-03-19T06:38:49.086Z,30.20
2019-03-19T06:41:22.546Z,29.80
2019-03-19T06:43:54.052Z,29.60
2019-03-19T06:46:28.250Z,29.00
2019-03-19T06:48:58.841Z,28.90
2019-03-19T06:51:29.267Z,28.90
2019-03-19T06:53:59.921Z,28.90
2019-03-19T06:56:30.743Z,29.10
2019-03-19T06:59:00.967Z,29.40
2019-03-19T07:01:31.307Z,29.40
2019-03-19T07:04:01.812Z,29.40
2019-03-19T07:06:32.398Z,29.30
2019-03-19T07:09:10.801Z,29.40
2019-03-19T07:11:46.187Z,29.60
2019-03-19T07:14:19.694Z,29.70
2019-03-19T07:17:12.360Z,30.00
2019-03-19T07:19:44.293Z,30.10
2019-03-19T07:22:18.482Z,30.00
2019-03-19T07:25:10.836Z,30.00
2019-03-19T07:27:48.419Z,30.00
2019-03-19T07:33:00.678Z,30.80
2019-03-19T07:39:42.392Z,30.80
2019-03-19T07:42:10.122Z,31.40
2019-03-19T07:44:41.531Z,31.70
2019-03-19T07:50:01.991Z,32.20
2019-03-19T08:16:45.535Z,30.00
2019-03-19T08:19:15.096Z,29.90
2019-03-19T08:21:47.618Z,29.90
2019-03-19T08:24:24.454Z,29.00
2019-03-19T08:27:00.969Z,29.70
2019-03-19T08:33:09.574Z,32.40
2019-03-19T08:39:48.398Z,32.90
2019-03-19T08:47:24.209Z,34.40
2019-03-19T08:50:01.494Z,34.60
2019-03-19T08:55:56.927Z,35.30
2019-03-19T09:04:09.711Z,35.30
2019-03-19T09:15:31.599Z,36.00
2019-03-19T09:18:00.972Z,35.60
2019-03-19T09:20:40.493Z,35.40
2019-03-19T09:26:10.270Z,34.50
2019-03-19T10:04:50.503Z,37.20
2019-03-19T10:07:21.049Z,37.70
2019-03-19T10:12:54.539Z,38.10
2019-03-19T10:18:11.074Z,38.70
2019-03-19T10:32:42.840Z,38.40
2019-03-19T10:41:22.829Z,38.30
2019-03-19T11:04:00.159Z,38.40
2019-03-19T11:09:19.522Z,37.60
2019-03-19T11:33:47.832Z,35.00
2019-03-19T11:47:26.738Z,35.60
2019-03-19T11:55:25.029Z,35.70
2019-03-19T11:57:57.390Z,37.20
2019-03-19T12:03:33.151Z,36.60
2019-03-19T12:11:56.346Z,34.00
2019-03-19T12:14:30.381Z,33.50
2019-03-19T12:17:04.981Z,33.90
2019-03-19T12:20:07.450Z,33.70
2019-03-19T12:23:16.833Z,34.30
2019-03-19T12:29:22.135Z,32.60
2019-03-19T12:31:27.022Z,32.80
2019-03-19T12:39:26.027Z,32.20
2019-03-19T13:10:20.918Z,32.90
2019-03-19T13:19:06.128Z,32.90
2019-03-19T13:21:47.720Z,33.10
2019-03-19T13:24:32.420Z,33.10
2019-03-19T13:30:08.692Z,32.70
2019-03-19T13:38:46.991Z,34.00
2019-03-19T13:44:30.744Z,35.60
2019-03-19T13:50:00.134Z,36.40
2019-03-19T13:58:14.907Z,36.90
2019-03-19T14:01:57.819Z,37.30
2019-03-19T14:04:33.737Z,37.00
2019-03-19T14:09:56.055Z,35.70
2019-03-19T14:12:29.101Z,35.90
2019-03-19T14:14:59.427Z,34.70
2019-03-19T14:17:42.132Z,34.90
2019-03-19T14:25:50.535Z,34.50
2019-03-19T14:28:24.039Z,35.20
2019-03-19T14:30:54.477Z,35.40
2019-03-19T14:33:25.004Z,36.40
2019-03-19T14:35:55.726Z,36.30
2019-03-19T14:38:26.182Z,36.60
2019-03-19T14:40:56.728Z,36.30
2019-03-19T14:43:27.725Z,36.40
2019-03-19T14:46:02.580Z,36.00
2019-03-19T14:51:04.473Z,36.50
2019-03-19T14:53:34.917Z,37.30
2019-03-19T14:58:51.602Z,37.10
2019-03-19T15:04:02.293Z,38.00
2019-03-19T15:06:32.712Z,39.80
2019-03-19T15:09:04.259Z,39.30
2019-03-19T15:11:48.400Z,38.00
2019-03-19T15:14:18.678Z,36.50
2019-03-19T15:16:49.035Z,34.80
2019-03-19T15:19:19.405Z,33.40
2019-03-19T15:21:49.950Z,32.50
2019-03-19T15:24:20.333Z,31.80
2019-03-19T15:26:50.737Z,31.30
2019-03-19T15:29:21.276Z,31.00
2019-03-19T15:31:51.714Z,30.60
2019-03-19T15:34:22.024Z,30.30
2019-03-19T15:36:52.420Z,30.20
2019-03-19T15:39:23.857Z,30.00
2019-03-19T15:41:55.299Z,29.70
2019-03-19T15:44:25.790Z,29.20
2019-03-19T15:46:56.254Z,29.00
2019-03-19T15:49:37.627Z,28.70
2019-03-19T15:52:00.236Z,28.90
2019-03-19T15:54:30.648Z,29.10
2019-03-19T15:57:01.048Z,29.50
2019-03-19T15:59:31.357Z,29.80
2019-03-19T16:02:01.705Z,29.90
2019-03-19T16:04:33.225Z,30.60
2019-03-19T16:07:03.785Z,30.00
2019-03-19T16:09:34.145Z,30.20
2019-03-19T16:12:04.592Z,30.20
2019-03-19T16:14:35.019Z,30.20
2019-03-19T16:17:05.369Z,30.30
2019-03-19T16:19:35.840Z,30.40
2019-03-19T16:22:06.211Z,30.30
2019-03-19T16:24:37.607Z,30.00
2019-03-19T16:27:07.944Z,30.00
2019-03-19T16:29:38.385Z,30.00
2019-03-19T16:32:08.919Z,30.00
2019-03-19T16:34:39.264Z,30.00
2019-03-19T16:37:09.734Z,30.00
2019-03-19T16:39:41.180Z,30.00
2019-03-19T16:42:11.536Z,30.00
2019-03-19T16:44:41.877Z,30.00
2019-03-19T16:47:12.261Z,30.00
2019-03-19T16:49:42.717Z,30.10
2019-03-19T16:52:14.183Z,30.00
2019-03-19T16:54:44.719Z,30.00
2019-03-19T16:57:15.116Z,30.70
2019-03-19T16:59:45.428Z,30.00
2019-03-19T17:02:15.819Z,30.70
2019-03-19T17:04:46.190Z,30.00
2019-03-19T17:07:16.561Z,29.90
2019-03-19T17:09:47.021Z,30.60
2019-03-19T17:12:17.387Z,29.90
2019-03-19T17:14:47.774Z,29.20
2019-03-19T17:17:18.156Z,28.80
2019-03-19T17:19:48.705Z,28.70
2019-03-19T17:22:19.100Z,28.90
2019-03-19T17:24:49.675Z,28.90
2019-03-19T17:27:20.040Z,29.00
2019-03-19T17:29:50.398Z,29.00
2019-03-19T17:32:20.819Z,29.20
2019-03-19T17:34:51.214Z,29.10
2019-03-19T17:37:21.680Z,29.20
2019-03-19T17:39:52.083Z,29.20
2019-03-19T17:42:22.527Z,29.10
2019-03-19T17:44:52.924Z,29.20
2019-03-19T17:47:23.409Z,29.20
2019-03-19T17:49:53.778Z,29.20
2019-03-19T17:52:24.313Z,29.20
2019-03-19T17:54:54.912Z,29.20
2019-03-19T17:57:26.880Z,29.30
2019-03-19T17:59:58.429Z,29.40
2019-03-19T18:02:28.779Z,29.50
2019-03-19T18:04:59.046Z,29.50
2019-03-19T18:07:29.513Z,29.60
2019-03-19T18:09:59.900Z,29.60
2019-03-19T18:12:30.247Z,29.70
2019-03-19T18:15:00.560Z,29.80
2019-03-19T18:17:30.843Z,29.80
2019-03-19T18:20:01.238Z,29.80
2019-03-19T18:22:31.921Z,29.80
2019-03-19T18:25:02.409Z,29.80
2019-03-19T18:27:32.845Z,29.90
2019-03-19T18:30:03.262Z,30.00
2019-03-19T18:32:35.286Z,30.00
2019-03-19T18:35:06.235Z,30.10
2019-03-19T18:37:57.224Z,30.10
2019-03-19T18:40:26.793Z,30.70
2019-03-19T18:43:00.274Z,31.90
2019-03-19T18:50:53.200Z,32.00
2019-03-19T18:53:23.589Z,32.00
2019-03-19T18:55:54.035Z,32.60
2019-03-19T18:58:24.576Z,33.50
2019-03-19T19:00:55.014Z,36.00
2019-03-19T19:03:25.509Z,37.10
2019-03-19T19:05:55.894Z,38.00
2019-03-19T19:08:26.336Z,38.10
2019-03-19T19:10:59.673Z,38.00
2019-03-19T19:15:59.020Z,38.40
2019-03-19T19:18:29.478Z,37.60
2019-03-19T19:23:33.357Z,37.30
2019-03-19T19:26:25.593Z,37.10
2019-03-19T19:28:57.499Z,36.90
2019-03-19T19:31:47.235Z,36.50
2019-03-19T19:54:33.565Z,36.10
2019-03-19T19:57:06.386Z,35.90
2019-03-19T19:59:38.951Z,35.80
2019-03-19T20:05:03.317Z,35.60
2019-03-19T20:07:34.232Z,35.60
2019-03-19T20:10:05.291Z,35.70
2019-03-19T20:12:37.885Z,35.80
2019-03-19T20:15:08.707Z,35.90
2019-03-19T20:17:39.257Z,35.90
2019-03-19T20:20:11.429Z,35.90
2019-03-19T20:22:44.608Z,35.90
2019-03-19T20:25:15.251Z,36.10
2019-03-19T20:27:45.882Z,36.10
2019-03-19T20:30:24.523Z,36.30
2019-03-19T20:32:55.024Z,36.40
2019-03-19T20:35:25.468Z,36.40
2019-03-19T20:37:56.223Z,36.40
2019-03-19T20:40:26.726Z,36.40
2019-03-19T20:42:57.245Z,36.40
2019-03-19T20:45:27.647Z,36.40
2019-03-19T20:47:58.078Z,36.40
2019-03-19T20:50:28.790Z,36.50
2019-03-19T20:52:59.139Z,36.40
2019-03-19T20:55:29.480Z,37.10
2019-03-19T20:57:59.789Z,36.40
2019-03-19T21:00:30.115Z,36.40
2019-03-19T21:03:00.518Z,36.50
2019-03-19T21:05:30.940Z,36.30
2019-03-19T21:08:01.340Z,36.40
2019-03-19T21:10:51.102Z,36.30
2019-03-19T21:13:21.810Z,36.30
2019-03-19T21:15:52.217Z,36.30
2019-03-19T21:18:22.632Z,36.20
2019-03-19T21:20:53.159Z,36.00
2019-03-19T21:23:23.689Z,36.00
2019-03-19T21:25:54.161Z,36.10
2019-03-19T21:28:24.678Z,36.00
2019-03-19T21:30:55.148Z,35.90
2019-03-19T21:33:25.709Z,35.90
2019-03-19T21:35:57.270Z,35.90
2019-03-19T21:38:27.822Z,35.90
2019-03-19T21:40:58.628Z,35.80
2019-03-19T21:43:29.097Z,35.80
2019-03-19T21:45:59.480Z,35.70
2019-03-19T21:48:29.903Z,35.70
2019-03-19T21:51:00.365Z,35.60
2019-03-19T21:53:30.758Z,35.60
2019-03-19T21:56:01.203Z,35.50
2019-03-19T21:58:31.615Z,35.50
2019-03-19T22:01:02.252Z,35.50
2019-03-19T22:03:32.711Z,35.40
2019-03-19T22:06:03.108Z,35.40
2019-03-19T22:08:33.998Z,35.40
2019-03-19T22:11:04.357Z,35.40
2019-03-19T22:13:34.827Z,35.20
2019-03-19T22:16:06.422Z,36.00
2019-03-19T22:18:36.787Z,35.10
2019-03-19T22:21:07.253Z,35.20
2019-03-19T22:23:37.623Z,35.10
2019-03-19T22:26:08.172Z,35.10
2019-03-19T22:28:38.637Z,35.10
2019-03-19T22:31:09.074Z,35.00
2019-03-19T22:33:39.460Z,35.00
2019-03-19T22:36:11.792Z,35.00
2019-03-19T22:38:42.067Z,34.90
2019-03-19T22:41:12.482Z,34.80
2019-03-19T22:43:42.920Z,34.80
2019-03-19T22:46:21.319Z,34.60
2019-03-19T22:48:45.429Z,34.70
2019-03-19T22:51:15.905Z,34.60
2019-03-19T22:53:46.248Z,34.50
2019-03-19T22:56:16.707Z,34.50
2019-03-19T22:58:47.069Z,34.40
2019-03-19T23:01:36.609Z,34.40
2019-03-19T23:04:07.144Z,34.40
2019-03-19T23:06:37.545Z,34.30
2019-03-19T23:09:08.017Z,34.30
2019-03-19T23:11:38.532Z,34.30
2019-03-19T23:14:08.982Z,34.30
2019-03-19T23:16:39.558Z,34.10
2019-03-19T23:19:10.338Z,34.20
2019-03-19T23:21:40.852Z,34.20
2019-03-19T23:24:11.307Z,34.10
2019-03-19T23:26:41.716Z,34.10
2019-03-19T23:29:12.167Z,34.10
2019-03-19T23:31:42.529Z,34.00
2019-03-19T23:34:12.979Z,34.00
2019-03-19T23:36:43.388Z,34.00
2019-03-19T23:39:13.964Z,34.00
2019-03-19T23:41:44.531Z,34.10
2019-03-19T23:44:15.078Z,34.00
2019-03-19T23:46:45.508Z,34.00
2019-03-19T23:49:15.955Z,33.90
2019-03-19T23:51:46.455Z,34.00
2019-03-19T23:54:17.029Z,33.80
2019-03-19T23:56:47.484Z,33.80
2019-03-19T23:59:17.965Z,33.70
